createdAt,value
2022-11-05T00:00:18.809Z,19.10
2022-11-05T00:03:05.464Z,19.10
2022-11-05T00:05:51.059Z,19.00
2022-11-05T00:08:36.877Z,19.10
2022-11-05T00:11:05.191Z,19.00
2022-11-05T00:13:51.059Z,19.00
2022-11-05T00:16:37.376Z,19.00
2022-11-05T00:19:09.104Z,19.00
2022-11-05T00:21:57.250Z,18.90
2022-11-05T00:24:43.394Z,18.90
2022-11-05T00:27:12.421Z,18.90
2022-11-05T00:29:40.716Z,18.90
2022-11-05T00:32:10.395Z,18.90
2022-11-05T00:34:38.703Z,18.80
2022-11-05T00:37:06.978Z,18.80
2022-11-05T00:39:35.469Z,18.80
2022-11-05T00:42:21.600Z,18.80
2022-11-05T00:45:05.445Z,18.70
2022-11-05T00:47:52.958Z,18.70
2022-11-05T00:50:22.971Z,18.70
2022-11-05T00:52:58.804Z,18.70
2022-11-05T00:55:33.491Z,18.60
2022-11-05T00:58:02.953Z,18.70
2022-11-05T01:00:33.049Z,18.60
2022-11-05T01:03:04.868Z,18.60
2022-11-05T01:05:34.603Z,18.60
2022-11-05T01:08:03.008Z,18.60
2022-11-05T01:10:31.603Z,18.60
2022-11-05T01:13:00.323Z,18.60
2022-11-05T01:15:29.067Z,18.60
2022-11-05T01:17:57.403Z,18.60
2022-11-05T01:20:27.892Z,18.60
2022-11-05T01:22:56.157Z,18.50
2022-11-05T01:25:24.497Z,18.60
2022-11-05T01:27:52.995Z,18.60
2022-11-05T01:30:21.648Z,18.50
2022-11-05T01:32:50.123Z,18.50
2022-11-05T01:35:19.451Z,18.50
2022-11-05T01:37:49.571Z,18.50
2022-11-05T01:40:21.043Z,18.50
2022-11-05T01:42:49.517Z,18.50
2022-11-05T01:45:21.599Z,18.50
2022-11-05T01:47:57.956Z,18.50
2022-11-05T01:50:33.483Z,18.50
2022-11-05T01:53:14.242Z,18.50
2022-11-05T01:55:47.231Z,18.50
2022-11-05T01:58:20.012Z,18.40
2022-11-05T02:00:48.758Z,18.40
2022-11-05T02:03:18.384Z,18.50
2022-11-05T02:05:47.772Z,18.50
2022-11-05T02:08:28.522Z,18.50
2022-11-05T02:10:58.483Z,18.50
2022-11-05T02:13:27.509Z,18.50
2022-11-05T02:16:04.914Z,18.50
2022-11-05T02:18:45.680Z,18.50
2022-11-05T02:21:50.574Z,18.50
2022-11-05T02:24:45.114Z,18.50
2022-11-05T02:27:23.157Z,18.50
2022-11-05T02:30:12.902Z,18.50
2022-11-05T02:33:16.499Z,18.40
2022-11-05T02:36:01.627Z,18.40
2022-11-05T02:38:39.759Z,18.50
2022-11-05T02:41:16.088Z,18.50
2022-11-05T02:44:04.505Z,18.50
2022-11-05T02:46:45.429Z,18.50
2022-11-05T02:49:27.292Z,18.40
2022-11-05T02:51:59.641Z,18.40
2022-11-05T02:54:35.425Z,18.40
2022-11-05T02:57:05.327Z,18.40
2022-11-05T02:59:33.922Z,18.40
2022-11-05T03:02:04.880Z,18.30
2022-11-05T03:04:35.066Z,18.30
2022-11-05T03:07:17.430Z,18.30
2022-11-05T03:10:07.295Z,18.30
2022-11-05T03:12:45.011Z,18.40
2022-11-05T03:15:23.015Z,18.30
2022-11-05T03:18:02.240Z,18.30
2022-11-05T03:20:38.847Z,18.40
2022-11-05T03:23:13.933Z,18.30
2022-11-05T03:25:48.758Z,18.30
2022-11-05T03:28:21.225Z,18.30
2022-11-05T03:30:52.792Z,18.30
2022-11-05T03:33:25.500Z,18.30
2022-11-05T03:35:58.956Z,18.30
2022-11-05T03:38:32.443Z,18.40
2022-11-05T03:41:05.308Z,18.30
2022-11-05T03:43:38.787Z,18.30
2022-11-05T03:46:11.414Z,18.30
2022-11-05T03:48:42.981Z,18.40
2022-11-05T03:51:20.193Z,18.40
2022-11-05T03:53:52.205Z,18.30
2022-11-05T03:56:26.284Z,18.30
2022-11-05T03:58:59.080Z,18.40
2022-11-05T04:01:28.730Z,18.40
2022-11-05T04:03:57.593Z,18.40
2022-11-05T04:06:45.263Z,18.40
2022-11-05T04:09:42.259Z,18.40
2022-11-05T04:12:29.031Z,18.40
2022-11-05T04:14:57.448Z,18.40
2022-11-05T04:17:24.860Z,18.40
2022-11-05T04:20:10.715Z,18.30
2022-11-05T04:23:00.171Z,18.30
2022-11-05T04:25:28.431Z,18.30
2022-11-05T04:28:00.485Z,18.40
2022-11-05T04:30:27.824Z,18.40
2022-11-05T04:33:01.903Z,18.40
2022-11-05T04:35:31.541Z,18.50
2022-11-05T04:38:02.074Z,18.50
2022-11-05T04:40:30.589Z,18.50
2022-11-05T04:42:59.092Z,18.40
2022-11-05T04:45:29.661Z,18.40
2022-11-05T04:47:58.090Z,18.40
2022-11-05T04:50:26.428Z,18.40
2022-11-05T04:52:54.785Z,18.40
2022-11-05T04:55:24.596Z,18.50
2022-11-05T04:57:54.120Z,18.50
2022-11-05T05:00:24.103Z,18.40
2022-11-05T05:02:52.491Z,18.40
2022-11-05T05:05:22.097Z,18.40
2022-11-05T05:07:50.393Z,18.50
2022-11-05T05:10:18.960Z,18.50
2022-11-05T05:12:48.683Z,18.50
2022-11-05T05:15:17.112Z,18.50
2022-11-05T05:17:45.521Z,18.50
2022-11-05T05:20:30.912Z,18.40
2022-11-05T05:22:59.263Z,18.40
2022-11-05T05:25:27.559Z,18.50
2022-11-05T05:28:00.094Z,18.50
2022-11-05T05:30:28.424Z,18.40
2022-11-05T05:32:56.685Z,18.40
2022-11-05T05:35:25.033Z,18.40
2022-11-05T05:37:57.221Z,18.40
2022-11-05T05:40:25.618Z,18.40
2022-11-05T05:42:55.849Z,18.40
2022-11-05T05:45:25.607Z,18.40
2022-11-05T05:47:55.886Z,18.40
2022-11-05T05:50:24.158Z,18.40
2022-11-05T05:52:52.430Z,18.40
2022-11-05T05:55:20.757Z,18.40
2022-11-05T05:57:49.104Z,18.40
2022-11-05T06:00:17.826Z,18.40
2022-11-05T06:02:47.628Z,18.40
2022-11-05T06:05:16.116Z,18.40
2022-11-05T06:07:44.456Z,18.40
2022-11-05T06:10:13.256Z,18.40
2022-11-05T06:12:41.639Z,18.40
2022-11-05T06:15:10.629Z,18.50
2022-11-05T06:17:38.926Z,18.40
2022-11-05T06:20:10.020Z,18.40
2022-11-05T06:22:38.258Z,18.40
2022-11-05T06:25:08.204Z,18.40
2022-11-05T06:27:37.357Z,18.40
2022-11-05T06:30:06.669Z,18.40
2022-11-05T06:32:35.145Z,18.40
2022-11-05T06:35:03.688Z,18.40
2022-11-05T06:37:34.671Z,18.40
2022-11-05T06:40:03.051Z,18.40
2022-11-05T06:42:31.360Z,18.40
2022-11-05T06:44:59.729Z,18.40
2022-11-05T06:47:28.454Z,18.40
2022-11-05T06:49:57.564Z,18.40
2022-11-05T06:52:27.272Z,18.40
2022-11-05T06:54:57.057Z,18.40
2022-11-05T06:57:25.423Z,18.40
2022-11-05T06:59:59.937Z,18.40
2022-11-05T07:02:29.736Z,18.30
2022-11-05T07:04:58.052Z,18.30
2022-11-05T07:07:26.348Z,18.30
2022-11-05T07:09:56.192Z,18.30
2022-11-05T07:12:24.499Z,18.30
2022-11-05T07:14:52.768Z,18.30
2022-11-05T07:17:21.108Z,18.30
2022-11-05T07:19:49.778Z,18.30
2022-11-05T07:22:18.163Z,18.30
2022-11-05T07:24:47.594Z,18.30
2022-11-05T07:27:25.881Z,18.30
2022-11-05T07:29:54.194Z,18.30
2022-11-05T07:32:22.490Z,18.40
2022-11-05T07:34:50.838Z,18.30
2022-11-05T07:37:19.286Z,18.30
2022-11-05T07:39:47.668Z,18.30
2022-11-05T07:42:17.373Z,18.30
2022-11-05T07:44:45.803Z,18.40
2022-11-05T07:47:14.095Z,18.40
2022-11-05T07:49:42.575Z,18.40
2022-11-05T07:52:10.931Z,18.40
2022-11-05T07:54:39.464Z,18.40
2022-11-05T07:57:07.716Z,18.40
2022-11-05T07:59:37.473Z,18.40
2022-11-05T08:02:05.862Z,18.40
2022-11-05T08:04:34.350Z,18.40
2022-11-05T08:07:02.620Z,18.50
2022-11-05T08:09:30.950Z,18.50
2022-11-05T08:12:02.877Z,18.50
2022-11-05T08:14:32.031Z,18.50
2022-11-05T08:17:01.751Z,18.60
2022-11-05T08:19:30.078Z,18.60
2022-11-05T08:21:58.370Z,18.70
2022-11-05T08:24:26.788Z,18.70
2022-11-05T08:26:55.191Z,18.80
2022-11-05T08:29:23.528Z,18.70
2022-11-05T08:31:51.813Z,18.80
2022-11-05T08:34:21.544Z,18.80
2022-11-05T08:36:52.599Z,18.80
2022-11-05T08:39:21.066Z,18.80
2022-11-05T08:41:52.138Z,18.90
2022-11-05T08:44:20.411Z,18.90
2022-11-05T08:46:48.723Z,18.90
2022-11-05T08:49:17.360Z,18.90
2022-11-05T08:51:47.152Z,19.00
2022-11-05T08:54:15.621Z,19.00
2022-11-05T08:56:44.001Z,19.00
2022-11-05T08:59:12.649Z,19.00
2022-11-05T09:01:42.170Z,19.00
2022-11-05T09:04:10.751Z,19.00
2022-11-05T09:06:39.230Z,19.00
2022-11-05T09:09:08.980Z,19.00
2022-11-05T09:12:10.002Z,18.90
2022-11-05T09:14:27.399Z,18.90
2022-11-05T09:16:55.905Z,18.90
2022-11-05T09:19:24.672Z,18.90
2022-11-05T09:21:53.255Z,18.90
2022-11-05T09:24:23.063Z,18.90
2022-11-05T09:26:51.338Z,18.90
2022-11-05T09:29:19.876Z,18.90
2022-11-05T09:31:48.367Z,18.90
2022-11-05T09:34:16.844Z,18.90
2022-11-05T09:36:45.290Z,18.90
2022-11-05T09:39:13.644Z,18.90
2022-11-05T09:41:45.142Z,18.90
2022-11-05T09:44:17.567Z,18.90
2022-11-05T09:46:50.068Z,18.90
2022-11-05T09:49:26.930Z,18.90
2022-11-05T09:51:57.363Z,19.00
2022-11-05T09:54:29.359Z,19.00
2022-11-05T09:57:01.211Z,19.00
2022-11-05T09:59:31.713Z,19.00
2022-11-05T10:02:05.343Z,19.00
2022-11-05T10:04:35.638Z,19.00
2022-11-05T10:07:07.523Z,19.00
2022-11-05T10:09:43.105Z,19.00
2022-11-05T10:12:18.639Z,19.00
2022-11-05T10:14:51.452Z,19.00
2022-11-05T10:17:25.239Z,19.10
2022-11-05T10:19:59.535Z,19.00
2022-11-05T10:22:27.926Z,19.10
2022-11-05T10:24:57.063Z,19.10
2022-11-05T10:27:31.559Z,19.10
2022-11-05T10:30:00.447Z,19.10
2022-11-05T10:32:31.459Z,19.10
2022-11-05T10:35:02.683Z,19.10
2022-11-05T10:37:32.944Z,19.30
2022-11-05T10:40:03.467Z,19.30
2022-11-05T10:42:50.981Z,19.40
2022-11-05T10:45:33.010Z,19.50
2022-11-05T10:48:19.298Z,19.60
2022-11-05T10:50:47.831Z,19.70
2022-11-05T10:53:19.475Z,19.80
2022-11-05T10:55:49.477Z,19.80
2022-11-05T10:58:24.791Z,19.80
2022-11-05T11:01:12.132Z,19.90
2022-11-05T11:03:46.366Z,20.00
2022-11-05T11:06:24.506Z,20.00
2022-11-05T11:08:54.791Z,20.10
2022-11-05T11:11:32.702Z,20.10
2022-11-05T11:14:05.344Z,20.20
2022-11-05T11:16:41.092Z,20.30
2022-11-05T11:19:29.284Z,20.30
2022-11-05T11:22:23.054Z,20.40
2022-11-05T11:24:54.186Z,20.50
2022-11-05T11:27:28.271Z,20.50
2022-11-05T11:30:00.217Z,20.60
2022-11-05T11:32:37.367Z,20.60
2022-11-05T11:35:08.368Z,20.60
2022-11-05T11:37:42.259Z,20.70
2022-11-05T11:40:18.221Z,20.70
2022-11-05T11:42:48.455Z,20.80
2022-11-05T11:45:22.239Z,20.80
2022-11-05T11:47:51.766Z,20.90
2022-11-05T11:50:39.071Z,21.00
2022-11-05T11:53:31.452Z,21.00
2022-11-05T11:56:02.661Z,21.10
2022-11-05T11:58:40.989Z,21.10
2022-11-05T12:01:33.479Z,21.20
2022-11-05T12:04:11.263Z,21.20
2022-11-05T12:06:47.158Z,21.30
2022-11-05T12:09:24.390Z,21.40
2022-11-05T12:12:01.273Z,21.40
2022-11-05T12:14:41.178Z,21.40
2022-11-05T12:17:37.962Z,21.50
2022-11-05T12:20:38.539Z,21.50
2022-11-05T12:23:32.636Z,21.60
2022-11-05T12:26:09.997Z,21.60
2022-11-05T12:29:18.328Z,21.60
2022-11-05T12:32:00.715Z,21.70
2022-11-05T12:34:46.049Z,21.70
2022-11-05T12:37:22.950Z,21.80
2022-11-05T12:40:16.170Z,21.80
2022-11-05T12:43:01.515Z,21.80
2022-11-05T12:45:40.441Z,21.90
2022-11-05T12:48:30.353Z,21.90
2022-11-05T12:51:12.584Z,21.90
2022-11-05T12:53:56.261Z,21.90
2022-11-05T12:56:32.209Z,21.90
2022-11-05T12:59:07.340Z,22.00
2022-11-05T13:01:39.431Z,22.00
2022-11-05T13:04:14.519Z,22.00
2022-11-05T13:06:50.531Z,22.10
2022-11-05T13:09:24.690Z,22.10
2022-11-05T13:11:57.297Z,22.10
2022-11-05T13:14:30.246Z,22.10
2022-11-05T13:17:02.273Z,22.10
2022-11-05T13:19:36.180Z,22.20
2022-11-05T13:22:12.265Z,22.20
2022-11-05T13:24:48.567Z,22.20
2022-11-05T13:27:32.042Z,22.20
2022-11-05T13:30:04.749Z,22.20
2022-11-05T13:32:36.834Z,22.20
2022-11-05T13:35:30.338Z,22.20
2022-11-05T13:38:25.450Z,22.30
2022-11-05T13:41:05.811Z,22.20
2022-11-05T13:43:54.977Z,22.30
2022-11-05T13:47:01.523Z,22.20
2022-11-05T13:49:53.126Z,22.20
2022-11-05T13:52:37.659Z,22.30
2022-11-05T13:55:35.381Z,22.30
2022-11-05T13:58:52.877Z,22.30
2022-11-05T14:01:36.954Z,22.30
2022-11-05T14:04:06.087Z,22.30
2022-11-05T14:06:45.420Z,22.30
2022-11-05T14:09:20.765Z,22.30
2022-11-05T14:11:55.252Z,22.30
2022-11-05T14:14:33.928Z,22.30
2022-11-05T14:17:17.032Z,22.30
2022-11-05T14:20:07.291Z,22.20
2022-11-05T14:22:42.045Z,22.30
2022-11-05T14:25:48.337Z,22.20
2022-11-05T14:28:59.340Z,22.20
2022-11-05T14:32:08.361Z,22.20
2022-11-05T14:34:49.411Z,22.20
2022-11-05T14:37:33.427Z,22.20
2022-11-05T14:40:31.753Z,22.20
2022-11-05T14:43:03.056Z,22.10
2022-11-05T14:45:36.627Z,22.10
2022-11-05T14:48:08.362Z,22.10
2022-11-05T14:50:39.811Z,22.00
2022-11-05T14:53:27.871Z,22.10
2022-11-05T14:56:02.200Z,22.00
2022-11-05T14:58:35.688Z,22.00
2022-11-05T15:01:07.285Z,22.00
2022-11-05T15:03:47.451Z,21.90
2022-11-05T15:06:26.511Z,22.00
2022-11-05T15:09:29.928Z,21.90
2022-11-05T15:12:12.855Z,21.90
2022-11-05T15:14:50.126Z,21.80
2022-11-05T15:17:26.803Z,21.80
2022-11-05T15:19:55.915Z,21.80
2022-11-05T15:22:31.330Z,21.80
2022-11-05T15:25:00.161Z,21.80
2022-11-05T15:27:57.400Z,21.70
2022-11-05T15:30:26.196Z,21.70
2022-11-05T15:32:55.976Z,21.70
2022-11-05T15:35:27.483Z,21.70
2022-11-05T15:38:01.848Z,21.60
2022-11-05T15:40:34.329Z,21.60
2022-11-05T15:43:19.660Z,21.60
2022-11-05T15:46:02.195Z,21.50
2022-11-05T15:48:32.366Z,21.50
2022-11-05T15:51:00.904Z,21.50
2022-11-05T15:53:51.555Z,21.50
2022-11-05T15:56:27.966Z,21.40
2022-11-05T15:59:01.677Z,21.40
2022-11-05T16:01:32.974Z,21.40
2022-11-05T16:04:12.037Z,21.30
2022-11-05T16:06:42.744Z,21.30
2022-11-05T16:09:23.259Z,21.20
2022-11-05T16:12:12.419Z,21.20
2022-11-05T16:14:41.291Z,21.20
2022-11-05T16:17:20.471Z,21.20
2022-11-05T16:19:50.960Z,21.10
2022-11-05T16:22:20.011Z,21.10
2022-11-05T16:24:49.356Z,21.10
2022-11-05T16:27:20.118Z,21.00
2022-11-05T16:29:54.350Z,21.00
2022-11-05T16:32:30.224Z,21.00
2022-11-05T16:35:02.766Z,21.00
2022-11-05T16:37:40.181Z,21.00
2022-11-05T16:40:15.571Z,21.00
2022-11-05T16:42:44.309Z,20.90
2022-11-05T16:45:14.911Z,20.90
2022-11-05T16:47:44.380Z,20.80
2022-11-05T16:50:18.610Z,20.80
2022-11-05T16:52:47.514Z,20.70
2022-11-05T16:55:16.770Z,20.70
2022-11-05T16:57:47.705Z,20.70
2022-11-05T17:00:18.173Z,20.60
2022-11-05T17:02:47.013Z,20.60
2022-11-05T17:05:22.308Z,20.50
2022-11-05T17:07:50.961Z,20.50
2022-11-05T17:10:19.953Z,20.40
2022-11-05T17:12:48.348Z,20.40
2022-11-05T17:15:23.026Z,20.30
2022-11-05T17:17:51.651Z,20.30
2022-11-05T17:20:39.923Z,20.30
2022-11-05T17:23:10.424Z,20.20
2022-11-05T17:25:39.461Z,20.20
2022-11-05T17:28:08.465Z,20.10
2022-11-05T17:30:40.276Z,20.10
2022-11-05T17:33:10.222Z,20.10
2022-11-05T17:35:41.354Z,20.00
2022-11-05T17:38:10.105Z,20.00
2022-11-05T17:40:39.525Z,20.00
2022-11-05T17:43:08.598Z,19.90
2022-11-05T17:45:42.934Z,19.90
2022-11-05T17:48:11.319Z,19.90
2022-11-05T17:50:43.383Z,19.90
2022-11-05T17:53:12.509Z,19.90
2022-11-05T17:55:42.644Z,19.90
2022-11-05T17:58:11.661Z,19.90
2022-11-05T18:00:40.690Z,19.80
2022-11-05T18:03:10.114Z,19.80
2022-11-05T18:05:40.128Z,19.70
2022-11-05T18:08:10.222Z,19.80
2022-11-05T18:10:39.087Z,19.70
2022-11-05T18:13:07.625Z,19.70
2022-11-05T18:15:38.101Z,19.70
2022-11-05T18:18:06.784Z,19.60
2022-11-05T18:20:35.099Z,19.60
2022-11-05T18:23:03.516Z,19.50
2022-11-05T18:25:33.271Z,19.60
2022-11-05T18:28:02.592Z,19.50
2022-11-05T18:30:31.040Z,19.50
2022-11-05T18:32:59.378Z,19.40
2022-11-05T18:35:27.969Z,19.50
2022-11-05T18:37:56.404Z,19.40
2022-11-05T18:40:24.817Z,19.40
2022-11-05T18:42:54.650Z,19.30
2022-11-05T18:45:28.401Z,19.40
2022-11-05T18:47:57.946Z,19.30
2022-11-05T18:50:26.367Z,19.30
2022-11-05T18:52:54.649Z,19.30
2022-11-05T18:55:23.470Z,19.30
2022-11-05T18:57:53.535Z,19.30
2022-11-05T19:00:22.558Z,19.20
2022-11-05T19:02:52.546Z,19.20
2022-11-05T19:05:29.747Z,19.20
2022-11-05T19:07:58.695Z,19.10
2022-11-05T19:10:27.262Z,19.10
2022-11-05T19:12:57.088Z,19.10
2022-11-05T19:15:25.380Z,19.10
2022-11-05T19:17:53.736Z,19.00
2022-11-05T19:20:22.225Z,19.00
2022-11-05T19:22:50.623Z,19.00
2022-11-05T19:25:19.051Z,19.00
2022-11-05T19:27:47.401Z,19.10
2022-11-05T19:30:17.476Z,19.10
2022-11-05T19:32:46.066Z,19.20
2022-11-05T19:35:14.349Z,19.10
2022-11-05T19:37:42.766Z,19.20
2022-11-05T19:40:12.174Z,19.20
2022-11-05T19:42:40.513Z,19.20
2022-11-05T19:45:43.111Z,19.20
2022-11-05T19:47:59.744Z,19.10
2022-11-05T19:50:28.955Z,19.10
2022-11-05T19:52:57.401Z,19.00
2022-11-05T19:55:25.979Z,19.00
2022-11-05T19:57:54.482Z,19.00
2022-11-05T20:00:23.385Z,18.90
2022-11-05T20:02:52.086Z,18.90
2022-11-05T20:05:22.115Z,18.90
2022-11-05T20:07:53.139Z,18.90
2022-11-05T20:10:22.557Z,18.90
2022-11-05T20:12:51.222Z,18.80
2022-11-05T20:15:20.002Z,18.80
2022-11-05T20:17:52.497Z,18.80
2022-11-05T20:20:22.383Z,18.70
2022-11-05T20:22:53.666Z,18.70
2022-11-05T20:25:22.256Z,18.70
2022-11-05T20:27:51.390Z,18.70
2022-11-05T20:30:20.187Z,18.60
2022-11-05T20:32:49.073Z,18.60
2022-11-05T20:35:17.976Z,18.60
2022-11-05T20:37:53.637Z,18.60
2022-11-05T20:40:23.127Z,18.60
2022-11-05T20:42:51.508Z,18.60
2022-11-05T20:45:20.488Z,18.50
2022-11-05T20:47:49.098Z,18.50
2022-11-05T20:50:17.706Z,18.50
2022-11-05T20:52:47.619Z,18.50
2022-11-05T20:55:16.379Z,18.50
2022-11-05T20:57:45.310Z,18.40
2022-11-05T21:00:16.409Z,18.40
2022-11-05T21:02:45.448Z,18.40
2022-11-05T21:05:13.926Z,18.40
2022-11-05T21:07:42.855Z,18.30
2022-11-05T21:10:12.871Z,18.30
2022-11-05T21:12:42.731Z,18.30
2022-11-05T21:15:12.356Z,18.30
2022-11-05T21:17:41.040Z,18.30
2022-11-05T21:20:10.399Z,18.30
2022-11-05T21:22:39.225Z,18.30
2022-11-05T21:25:09.526Z,18.30
2022-11-05T21:27:43.401Z,18.20
2022-11-05T21:30:13.537Z,18.20
2022-11-05T21:32:42.013Z,18.20
2022-11-05T21:35:10.775Z,18.20
2022-11-05T21:37:39.087Z,18.10
2022-11-05T21:40:09.030Z,18.10
2022-11-05T21:42:39.273Z,18.10
2022-11-05T21:45:08.971Z,18.10
2022-11-05T21:47:37.244Z,18.10
2022-11-05T21:50:06.058Z,18.00
2022-11-05T21:52:51.901Z,18.10
2022-11-05T21:55:37.860Z,18.00
2022-11-05T21:58:30.304Z,18.00
2022-11-05T22:00:59.101Z,18.00
2022-11-05T22:03:27.452Z,18.00
2022-11-05T22:05:57.945Z,18.00
2022-11-05T22:08:26.286Z,17.90
2022-11-05T22:10:54.595Z,17.90
2022-11-05T22:13:24.283Z,17.90
2022-11-05T22:15:56.701Z,17.90
2022-11-05T22:18:25.140Z,17.80
2022-11-05T22:20:53.662Z,17.90
2022-11-05T22:23:22.127Z,17.80
2022-11-05T22:25:50.444Z,17.80
2022-11-05T22:28:18.890Z,17.80
2022-11-05T22:30:48.671Z,17.80
2022-11-05T22:33:17.266Z,17.80
2022-11-05T22:35:45.693Z,17.80
2022-11-05T22:38:14.416Z,17.70
2022-11-05T22:40:43.245Z,17.70
2022-11-05T22:43:11.887Z,17.70
2022-11-05T22:45:40.511Z,17.70
2022-11-05T22:48:10.846Z,17.70
2022-11-05T22:50:39.664Z,17.70
2022-11-05T22:53:07.979Z,17.70
2022-11-05T22:55:40.825Z,17.60
2022-11-05T22:58:09.095Z,17.60
2022-11-05T23:00:38.679Z,17.60
2022-11-05T23:03:07.178Z,17.60
2022-11-05T23:05:37.070Z,17.60
2022-11-05T23:08:22.995Z,17.50
2022-11-05T23:11:23.482Z,17.60
2022-11-05T23:13:51.810Z,17.50
2022-11-05T23:16:36.473Z,17.50
2022-11-05T23:19:22.783Z,17.50
2022-11-05T23:22:10.150Z,17.50
2022-11-05T23:24:38.568Z,17.50
2022-11-05T23:27:06.886Z,17.50
2022-11-05T23:29:35.265Z,17.50
2022-11-05T23:32:21.510Z,17.50
2022-11-05T23:34:49.778Z,17.40
2022-11-05T23:37:37.731Z,17.40
2022-11-05T23:40:09.240Z,17.40
2022-11-05T23:42:54.941Z,17.40
2022-11-05T23:45:40.834Z,17.40
2022-11-05T23:48:19.123Z,17.40
2022-11-05T23:50:51.210Z,17.30
2022-11-05T23:53:21.013Z,17.40
2022-11-05T23:55:49.888Z,17.40
2022-11-05T23:58:19.361Z,17.30
